sensor_id;sensor_type;location;lat;lon;timestamp;P1;durP1;ratioP1;P2;durP2;ratioP2
20026;SDS011;10174;42.688;23.344;2022-12-18T00:01:29;24.08;;;11.25;;
20026;SDS011;10174;42.688;23.344;2022-12-18T00:03:58;17.48;;;10.40;;
20026;SDS011;10174;42.688;23.344;2022-12-18T00:06:26;20.45;;;10.75;;
20026;SDS011;10174;42.688;23.344;2022-12-18T00:08:52;19.50;;;10.18;;
20026;SDS011;10174;42.688;23.344;2022-12-18T00:11:20;20.40;;;10.43;;
20026;SDS011;10174;42.688;23.344;2022-12-18T00:13:49;18.02;;;10.55;;
20026;SDS011;10174;42.688;23.344;2022-12-18T00:16:16;21.80;;;11.70;;
20026;SDS011;10174;42.688;23.344;2022-12-18T00:18:45;22.33;;;11.38;;
20026;SDS011;10174;42.688;23.344;2022-12-18T00:21:11;20.60;;;11.45;;
20026;SDS011;10174;42.688;23.344;2022-12-18T00:23:38;20.65;;;11.35;;
20026;SDS011;10174;42.688;23.344;2022-12-18T00:26:05;21.08;;;11.35;;
20026;SDS011;10174;42.688;23.344;2022-12-18T00:28:33;21.83;;;12.13;;
20026;SDS011;10174;42.688;23.344;2022-12-18T00:31:06;24.85;;;11.93;;
20026;SDS011;10174;42.688;23.344;2022-12-18T00:33:35;21.33;;;11.63;;
20026;SDS011;10174;42.688;23.344;2022-12-18T00:36:01;24.77;;;12.25;;
20026;SDS011;10174;42.688;23.344;2022-12-18T00:38:28;21.42;;;11.48;;
20026;SDS011;10174;42.688;23.344;2022-12-18T00:40:53;22.55;;;11.45;;
20026;SDS011;10174;42.688;23.344;2022-12-18T00:43:19;23.15;;;11.18;;
20026;SDS011;10174;42.688;23.344;2022-12-18T00:45:44;23.40;;;12.05;;
20026;SDS011;10174;42.688;23.344;2022-12-18T00:48:10;20.70;;;11.00;;
20026;SDS011;10174;42.688;23.344;2022-12-18T00:50:36;19.02;;;10.52;;
20026;SDS011;10174;42.688;23.344;2022-12-18T00:53:01;21.13;;;10.98;;
20026;SDS011;10174;42.688;23.344;2022-12-18T00:55:26;19.67;;;10.55;;
20026;SDS011;10174;42.688;23.344;2022-12-18T00:57:52;22.27;;;12.15;;
20026;SDS011;10174;42.688;23.344;2022-12-18T01:00:17;20.48;;;11.48;;
20026;SDS011;10174;42.688;23.344;2022-12-18T01:02:43;20.88;;;10.18;;
20026;SDS011;10174;42.688;23.344;2022-12-18T01:05:09;21.40;;;10.93;;
20026;SDS011;10174;42.688;23.344;2022-12-18T01:07:36;24.23;;;12.23;;
20026;SDS011;10174;42.688;23.344;2022-12-18T01:10:01;17.95;;;10.07;;
20026;SDS011;10174;42.688;23.344;2022-12-18T01:12:27;20.13;;;11.07;;
20026;SDS011;10174;42.688;23.344;2022-12-18T01:14:53;23.85;;;11.45;;
20026;SDS011;10174;42.688;23.344;2022-12-18T01:17:18;23.35;;;12.88;;
20026;SDS011;10174;42.688;23.344;2022-12-18T01:19:44;25.10;;;12.43;;
20026;SDS011;10174;42.688;23.344;2022-12-18T01:22:09;24.13;;;12.43;;
20026;SDS011;10174;42.688;23.344;2022-12-18T01:24:34;22.17;;;12.45;;
20026;SDS011;10174;42.688;23.344;2022-12-18T01:27:00;25.27;;;11.95;;
20026;SDS011;10174;42.688;23.344;2022-12-18T01:29:25;26.05;;;13.57;;
20026;SDS011;10174;42.688;23.344;2022-12-18T01:31:50;25.17;;;13.73;;
20026;SDS011;10174;42.688;23.344;2022-12-18T01:34:16;26.63;;;13.65;;
20026;SDS011;10174;42.688;23.344;2022-12-18T01:36:41;27.40;;;14.10;;
20026;SDS011;10174;42.688;23.344;2022-12-18T01:39:09;26.40;;;13.90;;
20026;SDS011;10174;42.688;23.344;2022-12-18T01:41:37;27.63;;;14.70;;
20026;SDS011;10174;42.688;23.344;2022-12-18T01:47:23;27.88;;;14.77;;
20026;SDS011;10174;42.688;23.344;2022-12-18T01:52:47;26.60;;;13.57;;
20026;SDS011;10174;42.688;23.344;2022-12-18T01:55:19;24.40;;;12.77;;
20026;SDS011;10174;42.688;23.344;2022-12-18T01:57:47;27.27;;;14.70;;
20026;SDS011;10174;42.688;23.344;2022-12-18T02:00:16;24.67;;;13.05;;
20026;SDS011;10174;42.688;23.344;2022-12-18T02:02:44;25.45;;;12.80;;
20026;SDS011;10174;42.688;23.344;2022-12-18T02:05:11;25.85;;;13.75;;
20026;SDS011;10174;42.688;23.344;2022-12-18T02:10:41;24.25;;;13.15;;
20026;SDS011;10174;42.688;23.344;2022-12-18T02:19:24;22.00;;;11.65;;
20026;SDS011;10174;42.688;23.344;2022-12-18T02:25:11;22.50;;;11.45;;
20026;SDS011;10174;42.688;23.344;2022-12-18T02:27:59;25.70;;;11.25;;
20026;SDS011;10174;42.688;23.344;2022-12-18T02:30:27;18.83;;;11.07;;
20026;SDS011;10174;42.688;23.344;2022-12-18T02:32:56;22.10;;;11.00;;
20026;SDS011;10174;42.688;23.344;2022-12-18T02:35:26;19.50;;;10.63;;
20026;SDS011;10174;42.688;23.344;2022-12-18T02:37:54;22.25;;;12.38;;
20026;SDS011;10174;42.688;23.344;2022-12-18T02:40:20;19.05;;;10.32;;
20026;SDS011;10174;42.688;23.344;2022-12-18T02:42:48;25.92;;;12.63;;
20026;SDS011;10174;42.688;23.344;2022-12-18T02:45:14;23.15;;;11.88;;
20026;SDS011;10174;42.688;23.344;2022-12-18T02:47:40;20.27;;;11.60;;
20026;SDS011;10174;42.688;23.344;2022-12-18T02:50:13;20.40;;;11.10;;
20026;SDS011;10174;42.688;23.344;2022-12-18T02:55:29;21.92;;;11.75;;
20026;SDS011;10174;42.688;23.344;2022-12-18T03:00:39;23.52;;;12.55;;
20026;SDS011;10174;42.688;23.344;2022-12-18T03:03:13;23.25;;;12.20;;
20026;SDS011;10174;42.688;23.344;2022-12-18T03:05:53;23.85;;;12.45;;
20026;SDS011;10174;42.688;23.344;2022-12-18T03:08:31;22.65;;;11.55;;
20026;SDS011;10174;42.688;23.344;2022-12-18T03:11:07;26.35;;;13.90;;
20026;SDS011;10174;42.688;23.344;2022-12-18T03:13:36;23.63;;;13.05;;
20026;SDS011;10174;42.688;23.344;2022-12-18T03:16:06;25.20;;;12.93;;
20026;SDS011;10174;42.688;23.344;2022-12-18T03:18:37;22.67;;;11.73;;
20026;SDS011;10174;42.688;23.344;2022-12-18T03:21:09;26.13;;;12.13;;
20026;SDS011;10174;42.688;23.344;2022-12-18T03:23:39;22.73;;;11.98;;
20026;SDS011;10174;42.688;23.344;2022-12-18T03:26:09;25.70;;;12.55;;
20026;SDS011;10174;42.688;23.344;2022-12-18T03:28:38;21.90;;;12.40;;
20026;SDS011;10174;42.688;23.344;2022-12-18T03:31:08;26.65;;;12.07;;
20026;SDS011;10174;42.688;23.344;2022-12-18T03:33:47;26.45;;;12.63;;
20026;SDS011;10174;42.688;23.344;2022-12-18T03:36:18;27.35;;;13.10;;
20026;SDS011;10174;42.688;23.344;2022-12-18T03:38:43;26.65;;;13.02;;
20026;SDS011;10174;42.688;23.344;2022-12-18T03:52:36;25.83;;;11.48;;
20026;SDS011;10174;42.688;23.344;2022-12-18T03:55:07;22.07;;;11.00;;
20026;SDS011;10174;42.688;23.344;2022-12-18T03:57:34;23.40;;;10.52;;
20026;SDS011;10174;42.688;23.344;2022-12-18T04:00:22;19.35;;;10.32;;
20026;SDS011;10174;42.688;23.344;2022-12-18T04:02:53;20.60;;;10.95;;
20026;SDS011;10174;42.688;23.344;2022-12-18T04:05:20;22.08;;;11.25;;
20026;SDS011;10174;42.688;23.344;2022-12-18T04:07:48;22.67;;;11.15;;
20026;SDS011;10174;42.688;23.344;2022-12-18T04:10:16;25.02;;;12.85;;
20026;SDS011;10174;42.688;23.344;2022-12-18T04:12:42;23.80;;;11.63;;
20026;SDS011;10174;42.688;23.344;2022-12-18T04:15:08;22.65;;;11.57;;
20026;SDS011;10174;42.688;23.344;2022-12-18T04:17:35;27.27;;;12.70;;
20026;SDS011;10174;42.688;23.344;2022-12-18T04:20:00;27.63;;;12.98;;
20026;SDS011;10174;42.688;23.344;2022-12-18T04:22:25;25.90;;;12.95;;
20026;SDS011;10174;42.688;23.344;2022-12-18T04:24:51;24.98;;;12.20;;
20026;SDS011;10174;42.688;23.344;2022-12-18T04:27:16;28.75;;;13.15;;
20026;SDS011;10174;42.688;23.344;2022-12-18T04:29:42;27.02;;;13.10;;
20026;SDS011;10174;42.688;23.344;2022-12-18T04:32:07;25.08;;;13.15;;
20026;SDS011;10174;42.688;23.344;2022-12-18T04:34:33;24.25;;;13.07;;
20026;SDS011;10174;42.688;23.344;2022-12-18T04:36:59;25.70;;;13.02;;
20026;SDS011;10174;42.688;23.344;2022-12-18T04:39:24;24.52;;;13.48;;
20026;SDS011;10174;42.688;23.344;2022-12-18T04:41:49;28.88;;;12.93;;
20026;SDS011;10174;42.688;23.344;2022-12-18T04:44:15;31.48;;;15.15;;
20026;SDS011;10174;42.688;23.344;2022-12-18T04:46:40;32.90;;;15.63;;
20026;SDS011;10174;42.688;23.344;2022-12-18T04:49:06;32.08;;;14.70;;
20026;SDS011;10174;42.688;23.344;2022-12-18T04:51:31;32.92;;;15.55;;
20026;SDS011;10174;42.688;23.344;2022-12-18T04:53:57;33.45;;;14.90;;
20026;SDS011;10174;42.688;23.344;2022-12-18T04:56:23;30.80;;;14.80;;
20026;SDS011;10174;42.688;23.344;2022-12-18T04:58:48;34.97;;;14.50;;
20026;SDS011;10174;42.688;23.344;2022-12-18T05:01:14;30.02;;;13.68;;
20026;SDS011;10174;42.688;23.344;2022-12-18T05:03:41;30.65;;;13.55;;
20026;SDS011;10174;42.688;23.344;2022-12-18T05:06:07;31.75;;;15.43;;
20026;SDS011;10174;42.688;23.344;2022-12-18T05:08:33;31.75;;;14.93;;
20026;SDS011;10174;42.688;23.344;2022-12-18T05:11:06;34.75;;;16.98;;
20026;SDS011;10174;42.688;23.344;2022-12-18T05:13:33;35.03;;;16.77;;
20026;SDS011;10174;42.688;23.344;2022-12-18T05:16:00;36.97;;;17.92;;
20026;SDS011;10174;42.688;23.344;2022-12-18T05:18:25;37.95;;;17.17;;
20026;SDS011;10174;42.688;23.344;2022-12-18T05:20:52;35.55;;;16.38;;
20026;SDS011;10174;42.688;23.344;2022-12-18T05:23:18;34.92;;;16.77;;
20026;SDS011;10174;42.688;23.344;2022-12-18T05:25:50;36.55;;;17.17;;
20026;SDS011;10174;42.688;23.344;2022-12-18T05:28:16;36.17;;;17.27;;
20026;SDS011;10174;42.688;23.344;2022-12-18T05:30:42;37.75;;;17.73;;
20026;SDS011;10174;42.688;23.344;2022-12-18T05:33:07;34.22;;;15.48;;
20026;SDS011;10174;42.688;23.344;2022-12-18T05:35:32;37.17;;;17.35;;
20026;SDS011;10174;42.688;23.344;2022-12-18T05:37:58;39.90;;;18.55;;
20026;SDS011;10174;42.688;23.344;2022-12-18T05:40:23;38.22;;;16.50;;
20026;SDS011;10174;42.688;23.344;2022-12-18T05:42:48;39.17;;;18.65;;
20026;SDS011;10174;42.688;23.344;2022-12-18T05:45:14;39.13;;;17.95;;
20026;SDS011;10174;42.688;23.344;2022-12-18T05:47:39;37.47;;;16.50;;
20026;SDS011;10174;42.688;23.344;2022-12-18T05:50:05;37.83;;;17.67;;
20026;SDS011;10174;42.688;23.344;2022-12-18T05:52:31;39.38;;;16.58;;
20026;SDS011;10174;42.688;23.344;2022-12-18T05:54:57;34.75;;;16.17;;
20026;SDS011;10174;42.688;23.344;2022-12-18T05:57:23;37.80;;;17.17;;
20026;SDS011;10174;42.688;23.344;2022-12-18T05:59:49;36.42;;;16.65;;
20026;SDS011;10174;42.688;23.344;2022-12-18T06:02:14;39.28;;;18.48;;
20026;SDS011;10174;42.688;23.344;2022-12-18T06:04:40;35.25;;;17.38;;
20026;SDS011;10174;42.688;23.344;2022-12-18T06:07:05;41.63;;;17.30;;
20026;SDS011;10174;42.688;23.344;2022-12-18T06:09:31;36.92;;;16.85;;
20026;SDS011;10174;42.688;23.344;2022-12-18T06:11:57;38.45;;;17.70;;
20026;SDS011;10174;42.688;23.344;2022-12-18T06:14:22;39.63;;;18.75;;
20026;SDS011;10174;42.688;23.344;2022-12-18T06:16:49;38.05;;;17.85;;
20026;SDS011;10174;42.688;23.344;2022-12-18T06:19:16;37.45;;;17.85;;
20026;SDS011;10174;42.688;23.344;2022-12-18T06:21:42;42.33;;;18.60;;
20026;SDS011;10174;42.688;23.344;2022-12-18T06:24:07;37.38;;;18.38;;
20026;SDS011;10174;42.688;23.344;2022-12-18T06:26:32;39.38;;;19.50;;
20026;SDS011;10174;42.688;23.344;2022-12-18T06:28:58;37.78;;;17.35;;
20026;SDS011;10174;42.688;23.344;2022-12-18T06:31:25;38.85;;;18.50;;
20026;SDS011;10174;42.688;23.344;2022-12-18T06:33:50;40.97;;;19.80;;
20026;SDS011;10174;42.688;23.344;2022-12-18T06:36:15;39.03;;;17.48;;
20026;SDS011;10174;42.688;23.344;2022-12-18T06:38:42;39.00;;;18.27;;
20026;SDS011;10174;42.688;23.344;2022-12-18T06:41:09;36.83;;;16.55;;
20026;SDS011;10174;42.688;23.344;2022-12-18T06:43:36;38.83;;;18.48;;
20026;SDS011;10174;42.688;23.344;2022-12-18T06:46:02;36.97;;;17.92;;
20026;SDS011;10174;42.688;23.344;2022-12-18T06:48:29;39.47;;;18.67;;
20026;SDS011;10174;42.688;23.344;2022-12-18T06:50:54;41.55;;;17.17;;
20026;SDS011;10174;42.688;23.344;2022-12-18T06:53:20;36.00;;;17.15;;
20026;SDS011;10174;42.688;23.344;2022-12-18T06:55:45;37.28;;;17.23;;
20026;SDS011;10174;42.688;23.344;2022-12-18T06:58:11;40.30;;;18.52;;
20026;SDS011;10174;42.688;23.344;2022-12-18T07:00:36;41.35;;;17.70;;
20026;SDS011;10174;42.688;23.344;2022-12-18T07:03:01;35.15;;;16.17;;
20026;SDS011;10174;42.688;23.344;2022-12-18T07:05:27;38.25;;;16.90;;
20026;SDS011;10174;42.688;23.344;2022-12-18T07:07:52;35.97;;;15.45;;
20026;SDS011;10174;42.688;23.344;2022-12-18T07:10:18;33.83;;;16.77;;
20026;SDS011;10174;42.688;23.344;2022-12-18T07:12:43;36.70;;;16.35;;
20026;SDS011;10174;42.688;23.344;2022-12-18T07:15:09;40.08;;;16.75;;
20026;SDS011;10174;42.688;23.344;2022-12-18T07:17:34;33.65;;;16.83;;
20026;SDS011;10174;42.688;23.344;2022-12-18T07:20:00;35.58;;;16.00;;
20026;SDS011;10174;42.688;23.344;2022-12-18T07:22:26;38.05;;;17.63;;
20026;SDS011;10174;42.688;23.344;2022-12-18T07:24:52;38.33;;;17.88;;
20026;SDS011;10174;42.688;23.344;2022-12-18T07:27:17;38.42;;;18.15;;
20026;SDS011;10174;42.688;23.344;2022-12-18T07:29:42;42.22;;;18.80;;
20026;SDS011;10174;42.688;23.344;2022-12-18T07:32:08;45.58;;;19.80;;
20026;SDS011;10174;42.688;23.344;2022-12-18T07:34:33;45.28;;;20.02;;
20026;SDS011;10174;42.688;23.344;2022-12-18T07:36:59;46.20;;;20.50;;
20026;SDS011;10174;42.688;23.344;2022-12-18T07:39:39;46.38;;;21.10;;
20026;SDS011;10174;42.688;23.344;2022-12-18T07:42:04;46.72;;;22.10;;
20026;SDS011;10174;42.688;23.344;2022-12-18T07:44:48;43.08;;;19.05;;
20026;SDS011;10174;42.688;23.344;2022-12-18T07:47:13;40.42;;;17.58;;
20026;SDS011;10174;42.688;23.344;2022-12-18T07:49:39;48.75;;;20.58;;
20026;SDS011;10174;42.688;23.344;2022-12-18T07:52:04;52.72;;;21.88;;
20026;SDS011;10174;42.688;23.344;2022-12-18T07:54:29;47.25;;;21.45;;
20026;SDS011;10174;42.688;23.344;2022-12-18T07:56:55;47.17;;;20.35;;
20026;SDS011;10174;42.688;23.344;2022-12-18T07:59:20;50.45;;;22.02;;
20026;SDS011;10174;42.688;23.344;2022-12-18T08:01:45;54.60;;;22.77;;
20026;SDS011;10174;42.688;23.344;2022-12-18T08:04:11;51.20;;;22.65;;
20026;SDS011;10174;42.688;23.344;2022-12-18T08:06:36;51.38;;;22.83;;
20026;SDS011;10174;42.688;23.344;2022-12-18T08:09:02;54.13;;;24.25;;
20026;SDS011;10174;42.688;23.344;2022-12-18T08:11:27;56.83;;;24.80;;
20026;SDS011;10174;42.688;23.344;2022-12-18T08:13:53;51.67;;;23.10;;
20026;SDS011;10174;42.688;23.344;2022-12-18T08:16:19;51.50;;;21.55;;
20026;SDS011;10174;42.688;23.344;2022-12-18T08:18:45;50.60;;;23.27;;
20026;SDS011;10174;42.688;23.344;2022-12-18T08:21:12;52.75;;;22.95;;
20026;SDS011;10174;42.688;23.344;2022-12-18T08:23:40;53.50;;;24.60;;
20026;SDS011;10174;42.688;23.344;2022-12-18T08:26:06;51.00;;;22.13;;
20026;SDS011;10174;42.688;23.344;2022-12-18T08:28:32;53.30;;;24.20;;
20026;SDS011;10174;42.688;23.344;2022-12-18T08:30:57;54.70;;;24.23;;
20026;SDS011;10174;42.688;23.344;2022-12-18T08:33:23;51.75;;;22.52;;
20026;SDS011;10174;42.688;23.344;2022-12-18T08:35:48;50.08;;;21.73;;
20026;SDS011;10174;42.688;23.344;2022-12-18T08:38:14;50.38;;;21.75;;
20026;SDS011;10174;42.688;23.344;2022-12-18T08:40:39;48.55;;;21.70;;
20026;SDS011;10174;42.688;23.344;2022-12-18T08:43:04;50.03;;;21.33;;
20026;SDS011;10174;42.688;23.344;2022-12-18T08:45:48;51.95;;;22.73;;
20026;SDS011;10174;42.688;23.344;2022-12-18T08:48:14;59.40;;;22.05;;
20026;SDS011;10174;42.688;23.344;2022-12-18T08:50:39;57.28;;;22.27;;
20026;SDS011;10174;42.688;23.344;2022-12-18T08:53:05;49.08;;;21.92;;
20026;SDS011;10174;42.688;23.344;2022-12-18T08:55:30;53.20;;;22.33;;
20026;SDS011;10174;42.688;23.344;2022-12-18T08:57:55;49.38;;;21.58;;
20026;SDS011;10174;42.688;23.344;2022-12-18T09:00:21;50.50;;;21.63;;
20026;SDS011;10174;42.688;23.344;2022-12-18T09:02:46;47.05;;;21.55;;
20026;SDS011;10174;42.688;23.344;2022-12-18T09:05:12;46.10;;;20.75;;
20026;SDS011;10174;42.688;23.344;2022-12-18T09:07:37;41.15;;;17.98;;
20026;SDS011;10174;42.688;23.344;2022-12-18T09:10:03;38.88;;;18.42;;
20026;SDS011;10174;42.688;23.344;2022-12-18T09:12:29;44.40;;;19.13;;
20026;SDS011;10174;42.688;23.344;2022-12-18T09:14:54;43.22;;;20.42;;
20026;SDS011;10174;42.688;23.344;2022-12-18T09:17:21;44.17;;;18.15;;
20026;SDS011;10174;42.688;23.344;2022-12-18T09:19:46;41.70;;;17.73;;
20026;SDS011;10174;42.688;23.344;2022-12-18T09:22:12;43.03;;;17.90;;
20026;SDS011;10174;42.688;23.344;2022-12-18T09:24:37;40.72;;;18.13;;
20026;SDS011;10174;42.688;23.344;2022-12-18T09:27:02;39.70;;;18.60;;
20026;SDS011;10174;42.688;23.344;2022-12-18T09:29:28;46.30;;;18.13;;
20026;SDS011;10174;42.688;23.344;2022-12-18T09:31:53;34.60;;;16.67;;
20026;SDS011;10174;42.688;23.344;2022-12-18T09:34:18;35.83;;;16.98;;
20026;SDS011;10174;42.688;23.344;2022-12-18T09:36:46;36.10;;;16.30;;
20026;SDS011;10174;42.688;23.344;2022-12-18T09:39:12;45.60;;;17.40;;
20026;SDS011;10174;42.688;23.344;2022-12-18T09:41:42;41.92;;;17.27;;
20026;SDS011;10174;42.688;23.344;2022-12-18T09:44:25;40.13;;;17.42;;
20026;SDS011;10174;42.688;23.344;2022-12-18T09:47:06;39.92;;;17.13;;
20026;SDS011;10174;42.688;23.344;2022-12-18T09:49:35;43.03;;;17.75;;
20026;SDS011;10174;42.688;23.344;2022-12-18T09:55:14;49.92;;;18.60;;
20026;SDS011;10174;42.688;23.344;2022-12-18T09:57:37;39.70;;;17.17;;
20026;SDS011;10174;42.688;23.344;2022-12-18T10:02:39;37.92;;;17.23;;
20026;SDS011;10174;42.688;23.344;2022-12-18T10:05:14;40.88;;;17.05;;
20026;SDS011;10174;42.688;23.344;2022-12-18T10:07:55;37.75;;;15.68;;
20026;SDS011;10174;42.688;23.344;2022-12-18T10:13:51;34.35;;;15.60;;
20026;SDS011;10174;42.688;23.344;2022-12-18T10:27:29;37.63;;;15.98;;
20026;SDS011;10174;42.688;23.344;2022-12-18T10:29:55;36.55;;;15.88;;
20026;SDS011;10174;42.688;23.344;2022-12-18T10:32:26;37.17;;;16.08;;
20026;SDS011;10174;42.688;23.344;2022-12-18T10:34:55;41.40;;;17.70;;
20026;SDS011;10174;42.688;23.344;2022-12-18T10:37:25;37.58;;;16.73;;
20026;SDS011;10174;42.688;23.344;2022-12-18T10:42:37;42.45;;;19.02;;
20026;SDS011;10174;42.688;23.344;2022-12-18T10:45:10;39.47;;;16.85;;
20026;SDS011;10174;42.688;23.344;2022-12-18T10:47:47;39.45;;;17.58;;
20026;SDS011;10174;42.688;23.344;2022-12-18T10:50:24;42.05;;;18.75;;
20026;SDS011;10174;42.688;23.344;2022-12-18T10:53:02;39.10;;;17.23;;
20026;SDS011;10174;42.688;23.344;2022-12-18T10:55:33;41.45;;;16.90;;
20026;SDS011;10174;42.688;23.344;2022-12-18T11:06:21;45.17;;;18.05;;
20026;SDS011;10174;42.688;23.344;2022-12-18T11:11:54;39.10;;;17.77;;
20026;SDS011;10174;42.688;23.344;2022-12-18T11:14:25;41.95;;;18.35;;
20026;SDS011;10174;42.688;23.344;2022-12-18T11:16:54;48.33;;;19.98;;
20026;SDS011;10174;42.688;23.344;2022-12-18T11:22:00;40.92;;;17.58;;
20026;SDS011;10174;42.688;23.344;2022-12-18T11:24:30;43.47;;;18.52;;
20026;SDS011;10174;42.688;23.344;2022-12-18T11:27:00;42.28;;;18.40;;
20026;SDS011;10174;42.688;23.344;2022-12-18T11:29:35;43.65;;;19.65;;
20026;SDS011;10174;42.688;23.344;2022-12-18T11:34:39;39.58;;;18.13;;
20026;SDS011;10174;42.688;23.344;2022-12-18T11:37:09;40.95;;;17.23;;
20026;SDS011;10174;42.688;23.344;2022-12-18T11:42:35;44.92;;;17.10;;
20026;SDS011;10174;42.688;23.344;2022-12-18T11:45:18;37.70;;;16.50;;
20026;SDS011;10174;42.688;23.344;2022-12-18T11:53:01;36.28;;;16.92;;
20026;SDS011;10174;42.688;23.344;2022-12-18T11:55:35;38.25;;;16.63;;
20026;SDS011;10174;42.688;23.344;2022-12-18T11:58:19;40.50;;;17.00;;
20026;SDS011;10174;42.688;23.344;2022-12-18T12:15:03;49.17;;;21.15;;
20026;SDS011;10174;42.688;23.344;2022-12-18T12:23:05;46.70;;;19.38;;
20026;SDS011;10174;42.688;23.344;2022-12-18T12:25:49;47.97;;;20.00;;
20026;SDS011;10174;42.688;23.344;2022-12-18T12:39:42;48.47;;;19.50;;
20026;SDS011;10174;42.688;23.344;2022-12-18T12:42:13;42.25;;;18.45;;
20026;SDS011;10174;42.688;23.344;2022-12-18T12:45:02;43.80;;;18.75;;
20026;SDS011;10174;42.688;23.344;2022-12-18T12:47:32;40.97;;;18.00;;
20026;SDS011;10174;42.688;23.344;2022-12-18T12:50:03;40.65;;;19.23;;
20026;SDS011;10174;42.688;23.344;2022-12-18T12:52:35;46.03;;;19.60;;
20026;SDS011;10174;42.688;23.344;2022-12-18T12:55:07;48.78;;;21.17;;
20026;SDS011;10174;42.688;23.344;2022-12-18T12:58:05;46.33;;;19.70;;
20026;SDS011;10174;42.688;23.344;2022-12-18T13:00:45;45.58;;;19.75;;
20026;SDS011;10174;42.688;23.344;2022-12-18T13:09:01;48.78;;;18.70;;
20026;SDS011;10174;42.688;23.344;2022-12-18T13:11:32;41.90;;;17.65;;
20026;SDS011;10174;42.688;23.344;2022-12-18T13:14:27;43.25;;;18.27;;
20026;SDS011;10174;42.688;23.344;2022-12-18T13:17:13;41.05;;;18.20;;
20026;SDS011;10174;42.688;23.344;2022-12-18T13:19:47;38.95;;;16.75;;
20026;SDS011;10174;42.688;23.344;2022-12-18T13:22:24;45.58;;;19.08;;
20026;SDS011;10174;42.688;23.344;2022-12-18T13:24:54;40.08;;;16.98;;
20026;SDS011;10174;42.688;23.344;2022-12-18T13:38:37;45.25;;;19.35;;
20026;SDS011;10174;42.688;23.344;2022-12-18T13:41:20;46.70;;;20.23;;
20026;SDS011;10174;42.688;23.344;2022-12-18T13:43:51;43.38;;;19.17;;
20026;SDS011;10174;42.688;23.344;2022-12-18T13:51:48;43.78;;;19.17;;
20026;SDS011;10174;42.688;23.344;2022-12-18T13:56:43;43.05;;;19.70;;
20026;SDS011;10174;42.688;23.344;2022-12-18T13:59:11;47.03;;;19.60;;
20026;SDS011;10174;42.688;23.344;2022-12-18T14:01:58;42.45;;;18.63;;
20026;SDS011;10174;42.688;23.344;2022-12-18T14:04:29;50.20;;;19.15;;
20026;SDS011;10174;42.688;23.344;2022-12-18T14:07:03;45.28;;;18.45;;
20026;SDS011;10174;42.688;23.344;2022-12-18T14:09:35;43.97;;;20.42;;
20026;SDS011;10174;42.688;23.344;2022-12-18T14:12:05;36.70;;;16.92;;
20026;SDS011;10174;42.688;23.344;2022-12-18T14:14:50;39.72;;;17.55;;
20026;SDS011;10174;42.688;23.344;2022-12-18T14:17:17;35.72;;;15.88;;
20026;SDS011;10174;42.688;23.344;2022-12-18T14:19:44;50.17;;;18.13;;
20026;SDS011;10174;42.688;23.344;2022-12-18T14:22:15;38.03;;;16.38;;
20026;SDS011;10174;42.688;23.344;2022-12-18T14:24:43;40.83;;;16.88;;
20026;SDS011;10174;42.688;23.344;2022-12-18T14:27:13;39.10;;;16.67;;
20026;SDS011;10174;42.688;23.344;2022-12-18T14:29:46;36.33;;;16.25;;
20026;SDS011;10174;42.688;23.344;2022-12-18T14:32:16;38.35;;;16.45;;
20026;SDS011;10174;42.688;23.344;2022-12-18T14:34:44;37.13;;;16.90;;
20026;SDS011;10174;42.688;23.344;2022-12-18T14:37:15;38.08;;;16.70;;
20026;SDS011;10174;42.688;23.344;2022-12-18T14:39:52;33.50;;;15.85;;
20026;SDS011;10174;42.688;23.344;2022-12-18T14:42:18;27.33;;;12.30;;
20026;SDS011;10174;42.688;23.344;2022-12-18T14:44:43;39.65;;;16.52;;
20026;SDS011;10174;42.688;23.344;2022-12-18T14:47:13;38.60;;;16.42;;
20026;SDS011;10174;42.688;23.344;2022-12-18T14:49:40;50.45;;;16.88;;
20026;SDS011;10174;42.688;23.344;2022-12-18T14:54:53;29.73;;;12.93;;
20026;SDS011;10174;42.688;23.344;2022-12-18T14:57:25;34.47;;;14.70;;
20026;SDS011;10174;42.688;23.344;2022-12-18T15:00:06;35.38;;;15.07;;
20026;SDS011;10174;42.688;23.344;2022-12-18T15:02:40;32.00;;;13.98;;
20026;SDS011;10174;42.688;23.344;2022-12-18T15:05:16;36.25;;;16.02;;
20026;SDS011;10174;42.688;23.344;2022-12-18T15:07:47;35.13;;;15.27;;
20026;SDS011;10174;42.688;23.344;2022-12-18T15:12:45;32.78;;;14.45;;
20026;SDS011;10174;42.688;23.344;2022-12-18T15:18:01;29.73;;;13.45;;
20026;SDS011;10174;42.688;23.344;2022-12-18T15:20:51;32.67;;;14.00;;
20026;SDS011;10174;42.688;23.344;2022-12-18T15:23:25;31.30;;;13.93;;
20026;SDS011;10174;42.688;23.344;2022-12-18T15:26:00;33.75;;;14.63;;
20026;SDS011;10174;42.688;23.344;2022-12-18T15:33:35;32.40;;;14.45;;
20026;SDS011;10174;42.688;23.344;2022-12-18T15:36:04;36.55;;;14.20;;
20026;SDS011;10174;42.688;23.344;2022-12-18T15:38:33;34.40;;;14.93;;
20026;SDS011;10174;42.688;23.344;2022-12-18T15:40:59;38.65;;;14.90;;
20026;SDS011;10174;42.688;23.344;2022-12-18T15:43:24;33.35;;;14.25;;
20026;SDS011;10174;42.688;23.344;2022-12-18T15:46:09;34.10;;;14.85;;
20026;SDS011;10174;42.688;23.344;2022-12-18T15:48:40;35.72;;;14.45;;
20026;SDS011;10174;42.688;23.344;2022-12-18T15:51:19;34.47;;;15.38;;
20026;SDS011;10174;42.688;23.344;2022-12-18T15:53:48;34.88;;;14.13;;
20026;SDS011;10174;42.688;23.344;2022-12-18T15:56:17;35.80;;;15.18;;
20026;SDS011;10174;42.688;23.344;2022-12-18T15:59:16;37.65;;;16.42;;
20026;SDS011;10174;42.688;23.344;2022-12-18T16:01:43;34.00;;;15.23;;
20026;SDS011;10174;42.688;23.344;2022-12-18T16:04:14;41.80;;;16.50;;
20026;SDS011;10174;42.688;23.344;2022-12-18T16:06:41;41.90;;;16.55;;
20026;SDS011;10174;42.688;23.344;2022-12-18T16:09:07;38.67;;;17.35;;
20026;SDS011;10174;42.688;23.344;2022-12-18T16:11:33;44.05;;;17.25;;
20026;SDS011;10174;42.688;23.344;2022-12-18T16:14:20;40.28;;;17.05;;
20026;SDS011;10174;42.688;23.344;2022-12-18T16:16:57;47.70;;;16.85;;
20026;SDS011;10174;42.688;23.344;2022-12-18T16:19:24;41.00;;;17.27;;
20026;SDS011;10174;42.688;23.344;2022-12-18T16:21:51;43.47;;;17.27;;
20026;SDS011;10174;42.688;23.344;2022-12-18T16:24:21;44.65;;;17.92;;
20026;SDS011;10174;42.688;23.344;2022-12-18T16:26:49;41.30;;;16.60;;
20026;SDS011;10174;42.688;23.344;2022-12-18T16:29:19;43.05;;;17.60;;
20026;SDS011;10174;42.688;23.344;2022-12-18T16:31:52;37.33;;;17.35;;
20026;SDS011;10174;42.688;23.344;2022-12-18T16:34:28;62.33;;;28.48;;
20026;SDS011;10174;42.688;23.344;2022-12-18T16:39:21;41.92;;;19.05;;
20026;SDS011;10174;42.688;23.344;2022-12-18T16:41:47;45.28;;;18.42;;
20026;SDS011;10174;42.688;23.344;2022-12-18T16:44:13;41.85;;;18.17;;
20026;SDS011;10174;42.688;23.344;2022-12-18T16:46:39;48.53;;;19.60;;
20026;SDS011;10174;42.688;23.344;2022-12-18T16:49:07;41.42;;;17.73;;
20026;SDS011;10174;42.688;23.344;2022-12-18T16:51:33;41.05;;;17.63;;
20026;SDS011;10174;42.688;23.344;2022-12-18T16:53:59;43.05;;;18.30;;